Time;durP1;ratioP1;P1;durP2;ratioP2;P2;SDS_P1;SDS_P2;PMS_P1;PMS_P2;Temp;Humidity;BMP_temperature;BMP_pressure;BME280_temperature;BME280_humidity;BME280_pressure;Samples;Min_cycle;Max_cycle;Signal;HPM_P1;HPM_P2
2022/09/21 00:00:41;;;;;;;2.40;1.50;;;9.00;99.90;;;;;;5077604;28;20493;-82
2022/09/21 00:03:07;;;;;;;4.43;1.85;;;9.00;99.90;;;;;;5111061;27;20052;-82
2022/09/21 00:05:34;;;;;;;4.63;1.88;;;8.90;99.90;;;;;;5086533;28;20048;-82
2022/09/21 00:08:01;;;;;;;4.53;1.95;;;8.90;99.90;;;;;;5054450;28;20039;-82
2022/09/21 00:10:28;;;;;;;2.95;1.80;;;8.90;99.90;;;;;;5065984;28;20044;-81
2022/09/21 00:12:55;;;;;;;3.20;1.77;;;8.80;99.90;;;;;;5073911;28;20457;-82
2022/09/21 00:15:21;;;;;;;1.58;1.48;;;8.80;99.90;;;;;;5081443;28;20044;-82
2022/09/21 00:17:46;;;;;;;2.17;1.65;;;8.70;99.90;;;;;;5087423;28;20040;-83
2022/09/21 00:20:13;;;;;;;2.50;1.35;;;8.70;99.90;;;;;;5114406;28;20048;-81
2022/09/21 00:22:40;;;;;;;2.55;1.40;;;8.70;99.90;;;;;;5066794;28;20115;-81
2022/09/21 00:25:07;;;;;;;2.88;1.38;;;8.70;99.90;;;;;;5072571;28;20075;-81
2022/09/21 00:27:32;;;;;;;4.57;1.35;;;8.70;99.90;;;;;;5064824;28;20045;-80
2022/09/21 00:30:03;;;;;;;3.42;1.65;;;8.60;99.90;;;;;;5077556;28;20040;-83
2022/09/21 00:32:30;;;;;;;4.38;1.50;;;8.60;99.90;;;;;;5078600;28;20032;-82
2022/09/21 00:34:57;;;;;;;2.00;1.25;;;8.60;99.90;;;;;;5073293;28;20097;-81
2022/09/21 00:37:23;;;;;;;4.82;2.03;;;8.60;99.90;;;;;;5086924;28;20036;-81
2022/09/21 00:39:49;;;;;;;2.70;1.40;;;8.60;99.90;;;;;;5069228;28;20143;-80
2022/09/21 00:42:24;;;;;;;4.32;1.42;;;8.50;99.90;;;;;;5123156;27;20222;-83
2022/09/21 00:44:50;;;;;;;4.18;1.73;;;8.60;99.90;;;;;;5054014;28;20048;-81
2022/09/21 00:47:25;;;;;;;4.13;1.45;;;8.60;99.90;;;;;;5060699;28;20540;-82
2022/09/21 00:49:54;;;;;;;2.45;1.40;;;8.50;99.90;;;;;;5084669;28;20117;-80
2022/09/21 00:52:23;;;;;;;6.55;2.05;;;8.50;99.90;;;;;;5062714;28;20040;-82
2022/09/21 00:55:06;;;;;;;4.82;1.60;;;8.50;99.90;;;;;;5070810;28;20459;-82
2022/09/21 00:57:34;;;;;;;4.95;1.73;;;8.40;99.90;;;;;;5066816;28;20048;-83
2022/09/21 01:00:05;;;;;;;6.80;2.25;;;8.40;99.90;;;;;;5070270;28;20487;-81
2022/09/21 01:02:31;;;;;;;8.30;2.15;;;8.40;99.90;;;;;;5093700;28;20074;-81
2022/09/21 01:04:58;;;;;;;4.28;1.85;;;8.30;99.90;;;;;;5071920;28;20101;-81
2022/09/21 01:07:28;;;;;;;4.03;1.52;;;8.40;99.90;;;;;;5065506;28;20067;-81
2022/09/21 01:09:57;;;;;;;3.30;1.40;;;8.40;99.90;;;;;;5065298;28;20118;-82
2022/09/21 01:12:37;;;;;;;3.85;1.90;;;8.40;99.90;;;;;;5076286;28;20039;-83
2022/09/21 01:15:12;;;;;;;3.58;1.30;;;8.40;99.90;;;;;;5084677;28;20047;-81
2022/09/21 01:17:59;;;;;;;3.60;1.80;;;8.40;99.90;;;;;;5061249;28;20062;-81
2022/09/21 01:20:35;;;;;;;4.35;1.50;;;8.50;99.90;;;;;;5070029;28;20048;-82
2022/09/21 01:23:42;;;;;;;1.95;1.38;;;8.40;99.90;;;;;;5086974;28;20533;-82
2022/09/21 01:26:10;;;;;;;3.22;1.60;;;7.30;99.90;;;;;;5045238;28;20410;-81
2022/09/21 01:28:57;;;;;;;2.75;1.63;;;8.50;99.90;;;;;;5027256;28;20048;-82
2022/09/21 01:31:31;;;;;;;7.05;1.98;;;8.50;99.90;;;;;;5070494;28;20044;-82
2022/09/21 01:34:06;;;;;;;2.97;1.85;;;8.40;99.90;;;;;;5081402;28;20045;-82
2022/09/21 01:36:32;;;;;;;2.33;1.35;;;8.40;99.90;;;;;;5082400;28;20036;-82
2022/09/21 01:39:04;;;;;;;10.52;2.15;;;8.40;99.90;;;;;;5081093;28;20036;-81
2022/09/21 01:41:31;;;;;;;3.58;1.70;;;8.40;99.90;;;;;;5088034;28;20035;-82
2022/09/21 01:44:07;;;;;;;5.75;1.58;;;8.40;99.90;;;;;;5070540;28;20044;-83
2022/09/21 01:46:34;;;;;;;5.22;1.95;;;8.40;99.90;;;;;;5085047;28;20040;-82
2022/09/21 01:49:14;;;;;;;2.92;1.60;;;8.20;99.90;;;;;;5064166;28;20041;-82
2022/09/21 01:51:47;;;;;;;5.28;1.85;;;8.20;99.90;;;;;;5079063;28;20113;-81
2022/09/21 01:54:27;;;;;;;4.07;1.70;;;8.20;99.90;;;;;;5086583;28;20076;-83
2022/09/21 01:57:08;;;;;;;3.58;1.90;;;8.20;99.90;;;;;;5082810;28;20510;-82
2022/09/21 01:59:55;;;;;;;2.53;1.42;;;9.60;99.90;;;;;;5063535;28;20047;-82
2022/09/21 02:02:51;;;;;;;1.88;1.50;;;8.10;99.90;;;;;;5068289;28;20399;-81
2022/09/21 02:05:20;;;;;;;1.50;1.40;;;7.50;99.90;;;;;;5077107;28;20055;-83
2022/09/21 02:07:47;;;;;;;5.20;1.35;;;9.70;99.90;;;;;;5088528;28;20036;-82
2022/09/21 02:10:33;;;;;;;3.00;1.17;;;8.10;99.90;;;;;;5069197;28;20415;-83
2022/09/21 02:13:05;;;;;;;5.50;1.67;;;8.10;99.90;;;;;;5080821;28;20040;-82
2022/09/21 02:16:01;;;;;;;4.30;1.40;;;10.10;99.90;;;;;;5068620;28;20040;-81
2022/09/21 02:18:56;;;;;;;3.40;1.70;;;8.10;99.90;;;;;;5084036;28;20040;-81
2022/09/21 02:21:26;;;;;;;;;;;8.10;99.90;;;;;;5066387;28;20064;-81
2022/09/21 02:24:10;;;;;;;4.43;2.20;;;8.00;99.90;;;;;;5057326;28;19920;-82
2022/09/21 02:26:46;;;;;;;2.55;1.73;;;8.00;99.90;;;;;;5054984;28;20085;-81
2022/09/21 02:29:45;;;;;;;1.90;1.30;;;8.00;99.90;;;;;;5056051;28;20055;-82
2022/09/21 02:32:23;;;;;;;3.75;1.27;;;8.00;99.90;;;;;;5082115;28;20035;-81
2022/09/21 02:34:57;;;;;;;2.33;1.48;;;8.00;99.90;;;;;;5077160;28;20126;-82
2022/09/21 02:37:50;;;;;;;3.47;1.52;;;7.90;99.90;;;;;;5076537;28;20587;-83
2022/09/21 02:40:30;;;;;;;3.83;1.65;;;6.30;99.90;;;;;;5082460;28;20558;-83
2022/09/21 02:43:05;;;;;;;1.73;1.60;;;8.10;99.90;;;;;;5083654;28;20123;-82
2022/09/21 02:45:44;;;;;;;5.50;1.75;;;7.90;99.90;;;;;;5079277;28;20048;-82
2022/09/21 02:48:19;;;;;;;4.07;1.30;;;7.90;99.90;;;;;;5081103;28;20055;-81
2022/09/21 02:50:49;;;;;;;3.83;1.30;;;9.70;99.90;;;;;;5059341;28;20503;-81
2022/09/21 02:53:19;;;;;;;2.88;1.58;;;9.50;99.90;;;;;;5081972;28;20161;-82
2022/09/21 02:55:45;;;;;;;5.22;1.63;;;10.10;99.90;;;;;;5062723;28;20083;-82
2022/09/21 02:58:15;;;;;;;4.50;1.55;;;7.70;99.90;;;;;;5081140;28;20044;-83
2022/09/21 03:00:40;;;;;;;5.35;1.70;;;8.60;99.90;;;;;;5073510;28;20040;-83
2022/09/21 03:03:21;;;;;;;1.95;1.17;;;8.60;99.90;;;;;;5075384;28;20053;-82
2022/09/21 03:05:49;;;;;;;3.80;1.50;;;9.10;99.90;;;;;;5084059;28;20131;-83
2022/09/21 03:08:16;;;;;;;2.45;1.58;;;9.50;99.90;;;;;;5068509;28;20040;-83
2022/09/21 03:10:42;;;;;;;4.47;1.45;;;9.40;99.90;;;;;;5057725;28;20040;-82
2022/09/21 03:13:09;;;;;;;4.30;1.58;;;9.60;99.90;;;;;;5083480;28;20028;-82
2022/09/21 03:15:36;;;;;;;1.70;1.15;;;8.40;99.90;;;;;;5112076;27;20071;-81
2022/09/21 03:18:03;;;;;;;1.80;1.33;;;8.40;99.90;;;;;;5054074;28;20036;-82
2022/09/21 03:20:33;;;;;;;2.45;1.55;;;7.60;99.90;;;;;;5079922;28;20032;-82
2022/09/21 03:22:59;;;;;;;4.32;1.17;;;7.60;99.90;;;;;;5080240;28;20071;-81
2022/09/21 03:25:25;;;;;;;3.03;1.10;;;7.50;99.90;;;;;;5080770;28;20036;-83
2022/09/21 03:27:52;;;;;;;1.70;1.42;;;7.60;99.90;;;;;;5077239;28;20265;-82
2022/09/21 03:30:19;;;;;;;2.25;1.10;;;7.50;99.90;;;;;;5077419;28;20048;-82
2022/09/21 03:32:47;;;;;;;2.85;1.10;;;7.50;99.90;;;;;;5066413;28;20043;-82
2022/09/21 03:35:13;;;;;;;3.78;1.00;;;7.50;99.90;;;;;;5066077;28;20056;-83
2022/09/21 03:37:38;;;;;;;1.33;1.13;;;8.80;99.90;;;;;;5081212;28;20404;-83
2022/09/21 03:40:04;;;;;;;4.63;0.85;;;7.40;99.90;;;;;;5062602;28;20051;-82
2022/09/21 03:42:30;;;;;;;3.20;1.40;;;7.40;99.90;;;;;;5078024;28;20036;-81
2022/09/21 03:44:56;;;;;;;1.52;1.10;;;9.30;99.90;;;;;;5114300;27;20349;-82
2022/09/21 03:47:21;;;;;;;2.45;1.60;;;7.30;99.90;;;;;;5110716;27;20128;-82
2022/09/21 03:49:47;;;;;;;1.83;1.60;;;5.70;99.90;;;;;;5073650;28;20041;-81
2022/09/21 03:52:12;;;;;;;3.03;1.25;;;8.60;99.90;;;;;;5080614;28;20053;-82
2022/09/21 03:54:38;;;;;;;4.30;1.30;;;9.10;99.90;;;;;;5117783;27;20169;-83
2022/09/21 03:57:04;;;;;;;3.95;1.42;;;7.40;99.90;;;;;;5068697;28;20686;-82
2022/09/21 03:59:29;;;;;;;2.80;1.88;;;7.40;99.90;;;;;;5104646;27;20040;-81
2022/09/21 04:01:55;;;;;;;2.42;1.17;;;7.30;99.90;;;;;;5064082;28;20031;-83
2022/09/21 04:04:21;;;;;;;4.40;1.33;;;7.30;99.90;;;;;;5096744;28;20420;-82
2022/09/21 04:06:46;;;;;;;3.85;1.15;;;7.30;99.90;;;;;;5083189;28;20090;-82
2022/09/21 04:09:12;;;;;;;2.85;1.50;;;7.30;99.90;;;;;;5083320;28;20052;-81
2022/09/21 04:11:38;;;;;;;2.17;1.40;;;7.20;99.90;;;;;;5085034;28;20498;-82
2022/09/21 04:14:04;;;;;;;1.88;0.85;;;9.10;99.90;;;;;;5086589;28;20044;-82
2022/09/21 04:16:30;;;;;;;3.97;1.45;;;9.40;99.90;;;;;;5076805;28;20045;-83
2022/09/21 04:18:56;;;;;;;3.47;1.05;;;7.20;99.90;;;;;;5068205;28;20052;-82
2022/09/21 04:21:22;;;;;;;2.40;0.98;;;7.30;99.90;;;;;;5096511;28;20032;-83
2022/09/21 04:23:48;;;;;;;2.35;1.80;;;7.10;99.90;;;;;;5084038;28;20369;-82
2022/09/21 04:26:40;;;;;;;1.55;1.45;;;8.30;99.90;;;;;;5115980;28;20039;-82
2022/09/21 04:29:06;;;;;;;3.15;1.50;;;8.80;99.90;;;;;;5069175;28;20136;-82
2022/09/21 04:31:32;;;;;;;2.53;1.40;;;9.10;99.90;;;;;;5068057;28;20029;-82
2022/09/21 04:33:58;;;;;;;2.47;1.08;;;7.10;99.90;;;;;;5113934;28;20047;-82
2022/09/21 04:36:25;;;;;;;1.10;1.00;;;7.10;99.90;;;;;;5089817;28;20043;-81
2022/09/21 04:38:51;;;;;;;2.92;1.00;;;8.90;99.90;;;;;;5085301;28;20411;-82
2022/09/21 04:41:17;;;;;;;4.93;1.00;;;7.10;99.90;;;;;;5095091;28;20111;-82
2022/09/21 04:43:44;;;;;;;2.28;1.50;;;7.00;99.90;;;;;;5067886;28;20493;-83
2022/09/21 04:46:13;;;;;;;4.30;1.63;;;9.00;99.90;;;;;;5068483;28;20572;-83
2022/09/21 04:48:39;;;;;;;3.22;1.20;;;7.70;99.90;;;;;;5060542;28;20309;-82
2022/09/21 04:51:06;;;;;;;1.85;0.93;;;6.50;99.90;;;;;;5082828;28;20387;-82
2022/09/21 04:53:33;;;;;;;2.10;1.90;;;7.00;99.90;;;;;;5072446;28;20040;-81
2022/09/21 04:55:59;;;;;;;4.90;1.15;;;6.90;99.90;;;;;;5053512;28;20036;-81
2022/09/21 04:58:25;;;;;;;3.85;1.13;;;7.00;99.90;;;;;;5097581;28;20040;-82
2022/09/21 05:00:51;;;;;;;3.22;1.33;;;6.90;99.90;;;;;;5071568;28;20512;-81
2022/09/21 05:03:18;;;;;;;0.90;0.85;;;7.00;99.90;;;;;;5067035;28;20620;-82
2022/09/21 05:05:52;;;;;;;3.85;1.08;;;8.80;99.90;;;;;;5047428;28;20491;-82
2022/09/21 05:10:01;;;;;;;3.27;1.00;;;7.60;99.90;;;;;;5064003;28;20036;-82
2022/09/21 05:11:08;;;;;;;6.10;1.52;;;8.90;99.90;;;;;;5063166;28;20449;-81
2022/09/21 05:13:34;;;;;;;2.75;0.80;;;7.20;99.90;;;;;;5048893;28;20032;-82
2022/09/21 05:16:00;;;;;;;3.20;1.60;;;7.60;99.90;;;;;;5070861;28;20048;-81
2022/09/21 05:18:26;;;;;;;2.97;0.98;;;6.90;99.90;;;;;;5046559;28;20086;-82
2022/09/21 05:20:55;;;;;;;2.15;1.30;;;8.50;99.90;;;;;;5072634;28;20138;-82
2022/09/21 05:23:22;;;;;;;1.50;1.20;;;7.20;99.90;;;;;;5089954;28;20043;-82
2022/09/21 05:25:48;;;;;;;1.00;0.82;;;6.90;99.90;;;;;;5088941;28;20547;-82
2022/09/21 05:28:18;;;;;;;2.05;1.45;;;7.30;99.90;;;;;;5072474;28;20079;-82
2022/09/21 05:31:06;;;;;;;2.78;0.75;;;6.60;99.90;;;;;;5089173;28;20040;-81
2022/09/21 05:33:34;;;;;;;5.35;1.25;;;6.90;99.90;;;;;;5021867;28;20083;-82
2022/09/21 05:36:38;;;;;;;2.60;0.80;;;7.10;99.90;;;;;;5090127;28;20048;-83
2022/09/21 05:39:04;;;;;;;5.57;0.80;;;6.90;99.90;;;;;;5085562;28;20120;-82
2022/09/21 05:41:30;;;;;;;4.05;1.50;;;6.90;99.90;;;;;;5072031;28;20134;-82
2022/09/21 05:43:56;;;;;;;1.70;1.20;;;6.90;99.90;;;;;;5089072;28;20468;-82
2022/09/21 05:46:36;;;;;;;2.38;1.20;;;6.90;99.90;;;;;;5072051;28;20119;-82
2022/09/21 05:49:13;;;;;;;4.95;1.00;;;6.90;99.90;;;;;;5100891;28;20039;-82
2022/09/21 05:52:04;;;;;;;1.42;1.17;;;6.90;99.90;;;;;;5066718;28;20052;-83
2022/09/21 05:55:06;;;;;;;4.53;1.30;;;6.90;99.90;;;;;;5066610;28;20480;-82
2022/09/21 05:57:40;;;;;;;2.67;1.58;;;6.90;99.90;;;;;;5086575;28;20044;-82
2022/09/21 06:00:17;;;;;;;2.78;1.38;;;6.90;99.90;;;;;;5083694;28;20032;-82
2022/09/21 06:03:06;;;;;;;1.88;1.38;;;8.30;99.90;;;;;;5089086;28;20298;-82
2022/09/21 06:05:32;;;;;;;1.90;1.60;;;6.90;99.90;;;;;;5072108;28;20380;-82
2022/09/21 06:07:58;;;;;;;4.40;1.65;;;6.90;99.90;;;;;;5081714;28;20048;-81
2022/09/21 06:10:24;;;;;;;1.40;1.27;;;7.00;99.90;;;;;;5078970;28;20039;-82
2022/09/21 06:12:50;;;;;;;1.30;1.17;;;7.00;99.90;;;;;;5081511;28;20168;-81
2022/09/21 06:15:16;;;;;;;4.97;1.67;;;6.70;99.90;;;;;;5084058;28;20920;-82
2022/09/21 06:17:42;;;;;;;4.00;1.20;;;7.10;99.90;;;;;;5071865;28;20193;-83
2022/09/21 06:20:10;;;;;;;2.92;1.48;;;8.10;99.90;;;;;;4378367;28;10000792;-81
2022/09/21 06:22:36;;;;;;;9.05;1.83;;;7.10;99.90;;;;;;5068845;28;20729;-82
2022/09/21 06:25:02;;;;;;;7.70;1.83;;;7.60;99.90;;;;;;5086867;28;20043;-82
2022/09/21 06:27:28;;;;;;;11.82;2.40;;;7.20;99.90;;;;;;5064597;28;20094;-80
2022/09/21 06:29:54;;;;;;;22.05;2.28;;;8.40;99.90;;;;;;5068739;28;20047;-81
2022/09/21 06:32:19;;;;;;;9.35;2.58;;;8.60;99.90;;;;;;5071339;28;20044;-82
2022/09/21 06:34:45;;;;;;;13.40;2.80;;;7.20;99.90;;;;;;5086438;28;21669;-81
2022/09/21 06:37:11;;;;;;;10.85;2.83;;;7.30;99.90;;;;;;5067970;28;20135;-81
2022/09/21 06:39:36;;;;;;;10.45;2.42;;;7.30;99.90;;;;;;5088824;28;20089;-80
2022/09/21 06:42:02;;;;;;;12.02;2.40;;;9.00;99.90;;;;;;5089595;28;20058;-81
2022/09/21 06:44:28;;;;;;;9.82;3.30;;;7.30;99.90;;;;;;5079016;28;20514;-81
2022/09/21 06:46:54;;;;;;;5.72;2.25;;;7.90;99.90;;;;;;5083057;28;20039;-81
2022/09/21 06:49:20;;;;;;;8.63;2.17;;;8.20;99.90;;;;;;5085385;28;20052;-81
2022/09/21 06:51:47;;;;;;;13.73;3.47;;;7.40;99.90;;;;;;5091544;28;20059;-82
2022/09/21 06:54:12;;;;;;;9.65;3.03;;;7.50;99.90;;;;;;5089037;28;20448;-81
2022/09/21 06:56:38;;;;;;;9.85;2.65;;;7.50;99.90;;;;;;5067705;28;20047;-81
2022/09/21 06:59:04;;;;;;;9.95;2.63;;;7.60;99.90;;;;;;5087304;28;20109;-81
2022/09/21 07:01:30;;;;;;;9.68;2.78;;;8.10;99.90;;;;;;5088732;28;20059;-82
2022/09/21 07:03:55;;;;;;;13.75;3.30;;;7.60;99.90;;;;;;5072631;28;20090;-81
2022/09/21 07:06:21;;;;;;;7.05;2.30;;;9.50;99.90;;;;;;5089392;28;20062;-80
2022/09/21 07:08:47;;;;;;;6.03;2.63;;;7.70;99.90;;;;;;5088895;28;20447;-81
2022/09/21 07:11:13;;;;;;;8.90;3.10;;;7.70;99.90;;;;;;5078148;28;20514;-78
2022/09/21 07:13:39;;;;;;;6.40;2.72;;;7.00;99.90;;;;;;5080055;28;20044;-78
2022/09/21 07:16:08;;;;;;;8.43;2.17;;;9.50;99.90;;;;;;5088835;28;20040;-79
2022/09/21 07:18:34;;;;;;;8.98;2.42;;;9.00;99.90;;;;;;5085437;28;20137;-78
2022/09/21 07:21:08;;;;;;;9.75;2.88;;;8.30;99.90;;;;;;5086845;28;20039;-79
2022/09/21 07:23:33;;;;;;;13.80;2.70;;;8.10;99.90;;;;;;5082311;28;20106;-76
2022/09/21 07:26:05;;;;;;;12.40;2.67;;;9.60;99.90;;;;;;5093473;28;20490;-78
2022/09/21 07:28:30;;;;;;;9.50;3.05;;;8.30;99.90;;;;;;5067905;28;20044;-78
2022/09/21 07:30:58;;;;;;;10.70;2.83;;;8.50;99.90;;;;;;5088773;28;20051;-80
2022/09/21 07:33:24;;;;;;;5.00;2.30;;;8.50;99.90;;;;;;5088363;28;20035;-80
2022/09/21 07:35:57;;;;;;;7.30;2.78;;;8.60;99.90;;;;;;5089288;28;20048;-81
2022/09/21 07:38:23;;;;;;;14.23;3.00;;;8.70;99.90;;;;;;5089012;28;20081;-81
2022/09/21 07:40:55;;;;;;;9.30;2.88;;;10.20;99.90;;;;;;5090339;28;20040;-80
2022/09/21 07:43:20;;;;;;;13.55;4.03;;;8.90;99.90;;;;;;5073032;28;20105;-81
2022/09/21 07:45:55;;;;;;;11.65;2.90;;;9.00;99.90;;;;;;5119143;27;20122;-81
2022/09/21 07:48:21;;;;;;;5.80;2.40;;;9.90;99.90;;;;;;5087549;28;20040;-81
2022/09/21 07:50:48;;;;;;;11.93;2.55;;;9.30;99.90;;;;;;5088703;28;20044;-81
2022/09/21 07:53:16;;;;;;;5.13;2.53;;;10.10;99.90;;;;;;5071631;28;20047;-81
2022/09/21 07:55:43;;;;;;;10.80;2.88;;;10.50;99.90;;;;;;5089159;28;20047;-81
2022/09/21 08:00:53;;;;;;;8.05;3.30;;;10.30;99.90;;;;;;5087668;28;20048;-81
2022/09/21 08:03:19;;;;;;;6.95;1.88;;;9.80;99.90;;;;;;5088924;28;20044;-82
2022/09/21 08:05:44;;;;;;;5.47;1.80;;;9.90;99.90;;;;;;5077548;28;20040;-81
2022/09/21 08:08:10;;;;;;;6.32;2.38;;;11.10;99.90;;;;;;5088120;28;20119;-82
2022/09/21 08:10:36;;;;;;;5.20;2.20;;;10.20;99.90;;;;;;5115203;27;20056;-82
2022/09/21 08:13:01;;;;;;;8.57;1.98;;;10.30;99.90;;;;;;5089766;28;20040;-82
2022/09/21 08:15:27;;;;;;;7.72;2.75;;;10.40;99.90;;;;;;5085160;28;20075;-82
2022/09/21 08:17:53;;;;;;;5.15;2.10;;;11.90;99.90;;;;;;5089115;28;20546;-83
2022/09/21 08:20:20;;;;;;;7.07;1.80;;;10.50;99.90;;;;;;5071633;28;20051;-82
2022/09/21 08:22:46;;;;;;;7.03;1.67;;;11.60;99.90;;;;;;5088937;28;20048;-82
2022/09/21 08:25:12;;;;;;;6.20;1.77;;;10.80;99.90;;;;;;5085338;28;20105;-82
2022/09/21 08:27:39;;;;;;;7.60;1.65;;;10.90;99.90;;;;;;5089757;28;20031;-83
2022/09/21 08:30:06;;;;;;;5.95;1.50;;;11.30;99.90;;;;;;5088894;28;20056;-83
2022/09/21 08:32:32;;;;;;;5.93;1.40;;;11.10;99.90;;;;;;5088997;28;20436;-82
2022/09/21 08:34:58;;;;;;;8.48;1.42;;;11.20;99.90;;;;;;5088877;28;20094;-82
2022/09/21 08:37:24;;;;;;;7.15;1.48;;;12.10;99.90;;;;;;5089358;28;20042;-82
2022/09/21 08:39:49;;;;;;;9.40;1.48;;;11.40;99.90;;;;;;5089268;28;20043;-82
2022/09/21 08:42:36;;;;;;;12.82;1.55;;;11.50;99.90;;;;;;5088380;28;20498;-82
2022/09/21 08:45:08;;;;;;;6.50;1.13;;;11.50;99.90;;;;;;5071601;28;20093;-82
2022/09/21 08:47:48;;;;;;;6.90;1.45;;;11.70;99.90;;;;;;5089086;28;20087;-82
2022/09/21 08:50:36;;;;;;;9.85;1.20;;;11.80;99.90;;;;;;5081940;28;20066;-83
2022/09/21 08:53:37;;;;;;;4.82;0.90;;;11.90;99.90;;;;;;5090983;28;20488;-82
2022/09/21 08:56:03;;;;;;;7.25;0.90;;;12.10;99.90;;;;;;5073674;28;20525;-82
2022/09/21 08:58:31;;;;;;;7.38;1.20;;;12.10;99.90;;;;;;5092435;28;20128;-83
2022/09/21 09:01:18;;;;;;;6.93;1.10;;;12.20;99.90;;;;;;5091932;28;20092;-83
2022/09/21 09:03:53;;;;;;;6.68;1.30;;;12.20;99.90;;;;;;5088535;28;20098;-80
2022/09/21 09:06:42;;;;;;;6.32;0.88;;;12.30;99.90;;;;;;5094041;28;20048;-83
2022/09/21 09:09:16;;;;;;;10.57;1.98;;;12.30;99.90;;;;;;5091859;28;20044;-82
2022/09/21 09:12:05;;;;;;;8.35;0.98;;;12.30;99.90;;;;;;5092282;28;20074;-81
2022/09/21 09:15:06;;;;;;;7.78;0.75;;;12.40;99.90;;;;;;5084304;28;20119;-83
2022/09/21 09:17:43;;;;;;;5.13;0.98;;;12.60;99.90;;;;;;5087744;28;20036;-84
2022/09/21 09:20:21;;;;;;;6.75;0.90;;;12.60;99.90;;;;;;5126303;27;20040;-84
2022/09/21 09:23:02;;;;;;;5.40;0.75;;;13.30;99.90;;;;;;5122766;27;20484;-83
2022/09/21 09:25:37;;;;;;;5.32;0.90;;;12.70;99.90;;;;;;5073334;28;20051;-84
2022/09/21 09:28:23;;;;;;;8.80;1.00;;;12.70;99.90;;;;;;5092109;28;20044;-77
2022/09/21 09:30:58;;;;;;;6.63;0.60;;;13.40;99.90;;;;;;5089742;28;20050;-75
2022/09/21 09:33:48;;;;;;;6.57;0.70;;;12.60;99.90;;;;;;5073199;28;20040;-83
2022/09/21 09:36:13;;;;;;;4.13;0.47;;;12.70;99.90;;;;;;4700556;28;10000600;-82
2022/09/21 09:38:43;;;;;;;11.57;1.17;;;12.80;99.90;;;;;;5071933;28;20046;-82
2022/09/21 09:41:33;;;;;;;6.75;0.57;;;12.90;99.90;;;;;;5120178;27;20511;-79
2022/09/21 09:44:37;;;;;;;6.75;0.30;;;12.90;99.90;;;;;;5085817;28;20055;-80
2022/09/21 09:47:28;;;;;;;4.05;0.43;;;13.00;99.90;;;;;;5049267;28;20060;-80
2022/09/21 09:50:10;;;;;;;6.07;0.65;;;13.10;99.90;;;;;;5063353;28;20170;-80
2022/09/21 09:52:36;;;;;;;4.93;0.40;;;13.20;99.90;;;;;;5088620;28;20157;-80
2022/09/21 09:55:19;;;;;;;4.82;0.40;;;13.20;99.90;;;;;;5072254;28;20519;-81
2022/09/21 09:57:46;;;;;;;4.78;0.50;;;13.20;99.90;;;;;;5072837;28;20056;-80
2022/09/21 10:00:14;;;;;;;4.93;0.57;;;13.20;99.90;;;;;;5068845;28;20040;-80
2022/09/21 10:02:52;;;;;;;4.80;1.45;;;13.30;99.90;;;;;;5088987;28;20511;-80
2022/09/21 10:05:33;;;;;;;6.70;0.70;;;13.30;99.90;;;;;;5086337;28;20044;-81
2022/09/21 10:07:59;;;;;;;5.22;0.50;;;13.20;99.90;;;;;;5064179;28;20055;-79
2022/09/21 10:10:28;;;;;;;6.20;0.52;;;13.90;99.90;;;;;;5080976;28;20131;-82
2022/09/21 10:13:30;;;;;;;6.68;0.82;;;13.40;99.90;;;;;;5077914;28;20036;-80
2022/09/21 10:16:01;;;;;;;7.28;1.13;;;13.40;99.90;;;;;;5088041;28;20036;-80
2022/09/21 10:18:32;;;;;;;5.78;0.63;;;13.40;99.90;;;;;;5092479;28;20048;-80
2022/09/21 10:21:46;;;;;;;4.57;0.45;;;13.50;99.90;;;;;;5080238;28;20124;-80
2022/09/21 10:24:32;;;;;;;5.75;0.50;;;13.70;99.90;;;;;;5010187;28;20045;-83
2022/09/21 10:27:05;;;;;;;2.65;0.65;;;13.80;99.90;;;;;;5039241;28;20053;-81
2022/09/21 10:29:44;;;;;;;4.00;0.43;;;13.80;99.90;;;;;;5051206;28;20471;-81
2022/09/21 10:32:19;;;;;;;3.95;0.60;;;13.90;99.90;;;;;;5088313;28;20051;-82
2022/09/21 10:35:03;;;;;;;10.75;1.25;;;14.00;99.90;;;;;;5087561;28;20056;-81
2022/09/21 10:37:40;;;;;;;2.45;0.45;;;14.10;99.90;;;;;;5087011;28;20047;-82
2022/09/21 10:40:27;;;;;;;6.10;0.60;;;14.20;99.90;;;;;;5089829;28;20075;-80
2022/09/21 10:42:57;;;;;;;7.80;0.75;;;14.30;99.90;;;;;;5085605;28;20040;-81
2022/09/21 10:45:28;;;;;;;5.93;0.77;;;14.40;99.90;;;;;;5080600;28;20082;-81
2022/09/21 10:48:05;;;;;;;8.05;0.63;;;14.50;99.90;;;;;;5085743;28;20044;-82
2022/09/21 10:50:43;;;;;;;3.38;0.65;;;14.70;99.90;;;;;;5089725;28;20036;-82
2022/09/21 10:53:08;;;;;;;5.15;0.70;;;14.60;99.90;;;;;;5086699;28;20044;-81
2022/09/21 10:55:55;;;;;;;5.00;0.65;;;15.50;99.90;;;;;;5069433;28;20067;-82
2022/09/21 10:58:23;;;;;;;3.10;0.60;;;14.80;99.90;;;;;;5086751;28;20093;-81
2022/09/21 11:00:50;;;;;;;4.60;0.45;;;14.90;99.90;;;;;;5089475;28;20052;-81
2022/09/21 11:03:27;;;;;;;2.90;0.40;;;15.00;99.90;;;;;;5086874;28;20623;-82
2022/09/21 11:05:54;;;;;;;4.68;0.40;;;15.10;99.90;;;;;;5087046;28;20051;-82
2022/09/21 11:08:33;;;;;;;3.15;0.70;;;15.20;99.90;;;;;;5088999;28;20032;-82
2022/09/21 11:11:17;;;;;;;4.90;0.60;;;15.20;99.90;;;;;;5087405;28;20055;-81
2022/09/21 11:13:55;;;;;;;;;;;15.30;99.90;;;;;;5084178;28;20475;-82
2022/09/21 11:16:55;;;;;;;4.85;0.47;;;15.50;99.90;;;;;;5085451;28;19998;-81
2022/09/21 11:19:48;;;;;;;5.13;1.23;;;15.60;99.90;;;;;;5089136;28;20526;-81
2022/09/21 11:22:52;;;;;;;4.88;0.70;;;15.80;99.90;;;;;;5087682;28;20072;-81
2022/09/21 11:25:22;;;;;;;2.92;0.47;;;16.00;99.90;;;;;;5069992;28;20446;-82
2022/09/21 11:28:06;;;;;;;5.85;0.50;;;16.20;99.90;;;;;;5089088;28;20054;-82
2022/09/21 11:30:51;;;;;;;4.13;0.60;;;16.30;99.90;;;;;;5085420;28;20052;-81
2022/09/21 11:33:44;;;;;;;5.57;0.30;;;16.50;99.90;;;;;;5087455;28;20054;-81
2022/09/21 11:36:28;;;;;;;3.78;0.30;;;16.60;99.90;;;;;;5082630;28;20496;-81
2022/09/21 11:39:12;;;;;;;5.95;1.90;;;16.70;99.90;;;;;;5070291;28;20051;-81
2022/09/21 11:41:49;;;;;;;5.30;0.45;;;16.90;99.90;;;;;;5067621;28;20054;-81
2022/09/21 11:44:37;;;;;;;5.32;0.63;;;17.00;99.90;;;;;;5088038;28;20044;-82
2022/09/21 11:47:21;;;;;;;4.75;0.40;;;17.10;99.90;;;;;;5086141;28;20055;-81
2022/09/21 11:50:06;;;;;;;2.72;0.60;;;17.20;99.90;;;;;;5088596;28;20056;-82
2022/09/21 11:52:37;;;;;;;;;;;17.40;99.90;;;;;;5080861;28;20123;-81
2022/09/21 11:55:35;;;;;;;5.60;0.40;;;17.50;99.90;;;;;;5084973;28;20637;-82
2022/09/21 11:58:32;;;;;;;3.70;0.40;;;17.50;99.90;;;;;;5087933;28;20076;-81
2022/09/21 12:01:10;;;;;;;4.72;0.57;;;17.60;99.90;;;;;;5082764;28;20036;-81
2022/09/21 12:03:55;;;;;;;3.33;0.43;;;17.60;99.90;;;;;;5082884;28;20047;-81
2022/09/21 12:06:35;;;;;;;5.20;0.52;;;17.70;99.90;;;;;;5085170;28;20674;-82
2022/09/21 12:09:28;;;;;;;3.42;0.40;;;17.80;99.90;;;;;;5086720;28;20664;-82
2022/09/21 12:12:04;;;;;;;1.30;0.22;;;17.90;99.90;;;;;;5081849;28;20135;-81
2022/09/21 12:14:41;;;;;;;3.17;0.60;;;17.80;99.90;;;;;;5079880;28;20040;-82
2022/09/21 12:17:45;;;;;;;3.03;0.65;;;17.90;99.90;;;;;;5087502;28;20040;-82
2022/09/21 12:20:35;;;;;;;3.83;0.60;;;18.00;99.90;;;;;;5074135;28;20052;-81
2022/09/21 12:23:13;;;;;;;3.42;0.32;;;18.00;99.90;;;;;;5088169;28;20432;-81
2022/09/21 12:25:43;;;;;;;1.80;0.57;;;18.20;99.90;;;;;;5086719;28;20132;-81
2022/09/21 12:28:32;;;;;;;3.83;0.40;;;18.10;99.90;;;;;;5090642;28;20048;-81
2022/09/21 12:31:05;;;;;;;4.93;1.55;;;18.10;99.90;;;;;;5074170;28;20134;-81
2022/09/21 12:33:47;;;;;;;3.35;0.60;;;18.20;99.90;;;;;;5091596;28;20032;-81
2022/09/21 12:36:17;;;;;;;4.15;0.40;;;18.30;99.90;;;;;;5091157;28;20044;-81
2022/09/21 12:38:54;;;;;;;2.17;0.50;;;18.40;99.90;;;;;;5088703;28;20386;-82
2022/09/21 12:41:43;;;;;;;5.50;0.40;;;18.50;99.90;;;;;;5091960;28;20131;-82
2022/09/21 12:44:33;;;;;;;3.72;0.60;;;18.60;99.90;;;;;;5090501;28;20052;-81
2022/09/21 12:47:10;;;;;;;5.25;0.45;;;19.00;99.90;;;;;;5089698;28;20076;-81
2022/09/21 12:49:46;;;;;;;2.58;0.40;;;18.70;99.90;;;;;;5083793;28;20514;-80
2022/09/21 12:52:21;;;;;;;1.55;0.63;;;18.80;99.90;;;;;;5091923;28;20047;-81
2022/09/21 12:55:00;;;;;;;3.40;1.67;;;18.70;99.90;;;;;;5089639;28;20043;-81
2022/09/21 12:57:48;;;;;;;1.85;0.30;;;18.70;99.90;;;;;;5089662;28;20036;-81
2022/09/21 13:00:19;;;;;;;3.38;0.47;;;18.50;99.90;;;;;;5091958;28;20039;-81
2022/09/21 13:03:12;;;;;;;2.00;0.30;;;18.40;99.90;;;;;;5089401;28;20044;-81
2022/09/21 13:05:42;;;;;;;1.65;0.30;;;18.30;99.90;;;;;;5084800;28;20118;-81
2022/09/21 13:08:22;;;;;;;3.30;0.63;;;18.30;99.90;;;;;;5086502;28;20123;-81
2022/09/21 13:11:06;;;;;;;1.65;0.22;;;18.30;99.40;;;;;;5085503;28;20050;-81
2022/09/21 13:13:50;;;;;;;3.67;0.10;;;18.20;99.90;;;;;;5089904;28;20052;-81
2022/09/21 13:16:35;;;;;;;4.57;1.43;;;18.20;99.90;;;;;;5071363;28;20040;-82
2022/09/21 13:19:21;;;;;;;5.35;0.32;;;18.10;99.40;;;;;;5073204;28;20048;-81
2022/09/21 13:22:23;;;;;;;3.35;0.60;;;18.00;99.20;;;;;;5084290;28;20050;-81
2022/09/21 13:25:02;;;;;;;1.83;0.55;;;18.00;99.40;;;;;;5085737;28;20059;-81
2022/09/21 13:28:08;;;;;;;2.40;0.47;;;18.00;99.80;;;;;;5087969;28;20039;-82
2022/09/21 13:31:19;;;;;;;4.80;0.45;;;18.10;99.80;;;;;;5088907;28;20127;-81